Data for 05/13/2017

Time Sea-Level Adjusted Pressure Absolute Pressure Temperature Relative Humidity Dew Point   
(mb) (inHg) (mb) (inHg) (C) (F) (%) (C) (F)
00:05 1013 29.91 842 24.86 5 41 83 2.4 36.3
00:10 1013 29.91 842 24.86 4.9 40.8 83 2.2 35.9
00:15 1013 29.91 842 24.86 4.8 40.6 84 2.2 36
00:20 1013 29.91 842 24.86 4.7 40.4 84 2.2 36
00:25 1013 29.91 842 24.86 4.6 40.3 84 2.2 35.9
00:30 1013 29.91 842 24.86 4.6 40.3 83 2 35.6
00:35 1013 29.91 842 24.86 4.6 40.3 83 2 35.6
00:40 1013 29.91 842 24.86 4.6 40.3 83 1.9 35.4
00:45 1013 29.91 842 24.86 4.5 40.1 84 2 35.6
00:50 1013 29.91 842 24.86 4.4 39.9 85 2 35.6
00:55 1013 29.91 842 24.86 4.3 39.8 85 2 35.6
01:00 1013 29.91 842 24.86 4.3 39.7 86 2.1 35.8
01:05 1013 29.91 842 24.86 4.3 39.7 85 2 35.5
01:10 1013 29.91 843 24.89 4.2 39.6 84 1.8 35.3
01:15 1013 29.91 842 24.86 4.2 39.5 85 1.9 35.5
01:20 1013 29.91 842 24.86 4.2 39.6 86 2.1 35.7
01:25 1013 29.91 842 24.86 4.2 39.6 85 2 35.6
01:30 1013 29.91 842 24.86 4.2 39.5 84 1.8 35.2
01:35 1013 29.91 842 24.86 4.1 39.4 84 1.7 35.1
01:40 1013 29.91 843 24.89 4 39.2 85 1.7 35.1
01:45 1013 29.91 842 24.86 4.1 39.3 84 1.7 35
01:50 1013 29.91 842 24.86 4 39.2 85 1.7 35.1
01:55 1013 29.91 842 24.86 4 39.3 85 1.7 35.1
02:00 1013 29.91 842 24.86 4 39.2 84 1.6 35
02:05 1013 29.91 842 24.86 4 39.1 86 1.8 35.2
02:10 1013 29.91 842 24.86 3.9 38.9 86 1.7 35
02:15 1013 29.91 842 24.86 3.8 38.8 86 1.6 34.9
02:20 1013 29.91 842 24.86 3.6 38.5 86 1.5 34.8
02:25 1013 29.91 842 24.86 3.6 38.5 87 1.6 34.8
02:30 1013 29.91 842 24.86 3.7 38.7 87 1.8 35.2
02:35 1013 29.91 842 24.86 3.8 38.8 87 1.7 35.1
02:40 1013 29.91 842 24.86 3.7 38.6 88 1.8 35.3
02:45 1013 29.91 842 24.86 3.7 38.7 88 1.8 35.3
02:50 1013 29.91 842 24.86 3.7 38.7 88 1.9 35.4
02:55 1013 29.91 842 24.86 3.6 38.5 88 1.9 35.4
03:00 1013 29.91 842 24.86 3.7 38.7 88 1.8 35.3
03:05 1013 29.91 842 24.86 3.6 38.5 88 1.7 35.1
03:10 1013 29.91 842 24.86 3.6 38.4 88 1.7 35.1
03:15 1013 29.91 842 24.86 3.6 38.5 88 1.8 35.2
03:20 1013 29.91 842 24.86 3.6 38.5 88 1.8 35.2
03:25 1013 29.91 842 24.86 3.7 38.7 88 1.9 35.4
03:30 1013 29.91 842 24.86 3.8 38.9 87 1.9 35.4
03:35 1013 29.91 842 24.86 3.8 38.9 87 1.9 35.4
03:40 1013 29.91 842 24.86 3.8 38.8 88 1.9 35.4
03:45 1013 29.91 842 24.86 3.9 39 88 2 35.6
03:50 1013 29.91 842 24.86 3.9 39 87 2 35.6
03:55 1013 29.91 842 24.86 3.9 39.1 87 2 35.6
04:00 1013 29.91 842 24.86 3.9 39 88 2 35.6
04:05 1013 29.91 842 24.86 3.9 39.1 87 2 35.7
04:10 1013 29.91 842 24.86 4 39.1 88 2.1 35.8
04:15 1013 29.91 842 24.86 4 39.2 87 2 35.7
04:20 1013 29.91 842 24.86 4 39.3 87 2.1 35.8
04:25 1013 29.91 842 24.86 4 39.2 87 2 35.6
04:30 1012 29.88 842 24.86 4 39.2 86 1.9 35.5
04:35 1012 29.88 842 24.86 4 39.2 86 2 35.5
04:40 1012 29.88 842 24.86 4 39.2 86 1.9 35.4
04:45 1013 29.91 842 24.86 4 39.1 86 1.8 35.3
04:50 1013 29.91 842 24.86 3.9 39.1 86 1.9 35.4
04:55 1012 29.88 842 24.86 4 39.2 87 2 35.6
05:00 1012 29.88 842 24.86 4 39.1 87 2 35.6
05:05 1012 29.88 842 24.86 3.9 39.1 87 2 35.6
05:10 1012 29.88 841 24.83 3.9 39.1 87 1.9 35.5
05:15 1012 29.88 842 24.86 3.9 39 87 1.9 35.4
05:20 1012 29.88 842 24.86 3.9 39 87 2 35.5
05:25 1012 29.88 841 24.83 3.9 39.1 87 2 35.5
05:30 1012 29.88 841 24.83 3.9 39 87 1.9 35.4
05:35 1012 29.88 841 24.83 3.8 38.9 87 1.8 35.3
05:40 1012 29.88 841 24.83 3.8 38.8 87 1.8 35.3
05:45 1012 29.88 841 24.83 3.8 38.9 87 1.9 35.4
05:50 1012 29.88 841 24.83 3.8 38.9 87 1.9 35.3
05:55 1012 29.88 841 24.83 3.8 38.8 87 1.8 35.2
06:00 1012 29.88 841 24.83 3.8 38.8 86 1.7 35.1
06:05 1012 29.88 841 24.83 3.7 38.7 86 1.5 34.8
06:10 1012 29.88 841 24.83 3.7 38.6 85 1.5 34.6
06:15 1012 29.88 841 24.83 3.6 38.5 85 1.4 34.5
06:20 1012 29.88 841 24.83 3.5 38.3 84 1.1 33.9
06:25 1012 29.88 841 24.83 3.5 38.4 84 1.1 34
06:30 1012 29.88 841 24.83 3.5 38.4 84 1 33.8
06:35 1012 29.88 841 24.83 3.6 38.4 83 1 33.8
06:40 1012 29.88 841 24.83 3.6 38.4 84 1.1 34
06:45 1012 29.88 841 24.83 3.6 38.5 84 1.2 34.1
06:50 1012 29.88 841 24.83 3.6 38.4 85 1.2 34.1
06:55 1012 29.88 841 24.83 3.6 38.4 84 1.1 34
07:00 1012 29.88 841 24.83 3.5 38.3 85 1.2 34.1
07:05 1011 29.85 841 24.83 3.5 38.4 84 1.1 34
07:10 1012 29.88 841 24.83 3.6 38.5 84 1.1 34
07:15 1011 29.85 841 24.83 3.6 38.4 84 1.1 33.9
07:20 1011 29.85 841 24.83 3.6 38.6 83 1.1 33.9
07:25 1012 29.88 841 24.83 3.7 38.7 83 1.1 33.9
07:30 1012 29.88 841 24.83 3.7 38.7 82 1 33.8
07:35 1011 29.85 841 24.83 3.7 38.7 81 0.8 33.5
07:40 1011 29.85 841 24.83 4 39.2 80 0.8 33.5
07:45 1011 29.85 841 24.83 4.2 39.5 80 1.1 34
07:50 1011 29.85 841 24.83 4.2 39.6 80 1.1 34
07:55 1011 29.85 840 24.81 4.3 39.7 80 1.1 34
08:00 1011 29.85 840 24.81 4.4 39.9 79 1 33.9
08:05 1011 29.85 840 24.81 4.7 40.5 79 1.4 34.6
08:10 1011 29.85 840 24.81 4.7 40.5 79 1.3 34.4
08:15 1011 29.85 841 24.83 4.8 40.6 79 1.4 34.5
08:20 1011 29.85 840 24.81 4.8 40.6 78 1.3 34.4
08:25 1011 29.85 841 24.83 4.6 40.3 79 1.3 34.4
08:30 1011 29.85 841 24.83 4.4 39.9 79 1 33.9
08:35 1011 29.85 841 24.83 4.4 40 78 1 33.8
08:40 1011 29.85 841 24.83 4.5 40.1 78 0.9 33.7
08:45 1011 29.85 840 24.81 4.6 40.3 77 0.9 33.7
08:50 1011 29.85 840 24.81 4.7 40.4 78 1.2 34.1
08:55 1011 29.85 840 24.81 4.8 40.7 78 1.3 34.3
09:00 1011 29.85 840 24.81 5.1 41.1 74 0.8 33.5
09:05 1011 29.85 840 24.81 5.3 41.5 72 0.7 33.3
09:10 1011 29.85 840 24.81 5.2 41.4 74 0.9 33.6
09:15 1011 29.85 840 24.81 5.1 41.2 74 1 33.7
09:20 1011 29.85 840 24.81 5.2 41.4 74 0.9 33.7
09:25 1011 29.85 840 24.81 5.2 41.4 75 1.1 34
09:30 1011 29.85 840 24.81 5.2 41.4 73 0.8 33.5
09:35 1011 29.85 840 24.81 5.6 42 73 1.1 33.9
09:40 1011 29.85 840 24.81 5.9 42.5 71 1 33.9
09:45 1011 29.85 840 24.81 5.9 42.6 70 0.9 33.7
09:50 1011 29.85 840 24.81 6 42.8 70 0.9 33.6
09:55 1011 29.85 840 24.81 6.3 43.3 68 0.9 33.5
10:00 1011 29.85 840 24.81 6.3 43.3 69 1 33.8
10:05 1011 29.85 840 24.81 6 42.8 70 0.9 33.6
10:10 1010 29.83 840 24.81 5.9 42.5 72 1.2 34.1
10:15 1010 29.83 840 24.81 5.8 42.4 72 1.1 34
10:20 1010 29.83 840 24.81 5.7 42.3 71 0.9 33.5
10:25 1010 29.83 839 24.78 5.9 42.5 71 1 33.8
10:30 1010 29.83 839 24.78 6.1 43 69 0.9 33.5
10:35 1010 29.83 839 24.78 6.1 42.9 69 0.9 33.5
10:40 1010 29.83 839 24.78 5.9 42.6 72 1.2 34.1
10:45 1010 29.83 839 24.78 5.8 42.4 75 1.6 34.9
10:50 1010 29.83 839 24.78 5.7 42.2 72 1.1 34
10:55 1010 29.83 839 24.78 5.4 41.8 72 0.9 33.6
11:00 1010 29.83 839 24.78 5.4 41.8 73 1 33.9
11:05 1010 29.83 839 24.78 5.4 41.8 75 1.4 34.5
11:10 1010 29.83 839 24.78 5.7 42.3 75 1.6 34.9
11:15 1010 29.83 839 24.78 6.1 43 72 1.4 34.5
11:20 1010 29.83 839 24.78 6.3 43.3 72 1.7 35
11:25 1010 29.83 839 24.78 5.9 42.6 76 2 35.7
11:30 1010 29.83 839 24.78 5.6 42.1 76 1.8 35.2
11:35 1010 29.83 839 24.78 5.7 42.3 74 1.5 34.6
11:40 1010 29.83 839 24.78 5.9 42.6 75 1.7 35.1
11:45 1010 29.83 839 24.78 6 42.9 77 2.3 36.1
11:50 1010 29.83 839 24.78 6.3 43.4 74 2 35.5
11:55 1010 29.83 840 24.81 6 42.8 76 2 35.7
12:00 1010 29.83 840 24.81 5.7 42.2 76 1.8 35.2
12:05 1010 29.83 840 24.81 5.5 42 78 2 35.7
12:10 1010 29.83 839 24.78 5.7 42.3 76 1.9 35.4
12:15 1010 29.83 840 24.81 5.6 42 78 2 35.5
12:20 1010 29.83 840 24.81 5.5 41.9 76 1.7 35
12:25 1010 29.83 840 24.81 5.5 42 77 1.9 35.4
12:30 1010 29.83 840 24.81 5.3 41.6 79 2.1 35.7
12:35 1010 29.83 840 24.81 5.3 41.5 80 2 35.7
12:40 1010 29.83 840 24.81 5.2 41.4 80 2 35.6
12:45 1010 29.83 840 24.81 5.2 41.4 80 2 35.5
12:50 1011 29.85 840 24.81 5.2 41.3 83 2.5 36.5
12:55 1011 29.85 840 24.81 5.2 41.4 82 2.3 36.2
13:00 1011 29.85 840 24.81 5.1 41.2 83 2.5 36.6
13:05 1011 29.85 840 24.81 4.9 40.8 83 2.3 36.1
13:10 1011 29.85 840 24.81 4.7 40.5 83 2.1 35.7
13:15 1011 29.85 840 24.81 4.7 40.5 81 1.8 35.2
13:20 1011 29.85 840 24.81 4.6 40.4 83 2 35.5
13:25 1011 29.85 840 24.81 4.7 40.4 83 2.1 35.8
13:30 1011 29.85 840 24.81 4.8 40.6 82 1.9 35.5
13:35 1011 29.85 840 24.81 4.7 40.4 83 2 35.6
13:40 1011 29.85 840 24.81 4.8 40.6 83 2 35.7
13:45 1011 29.85 840 24.81 4.9 40.8 82 2.1 35.8
13:50 1011 29.85 840 24.81 4.8 40.7 82 2 35.6
13:55 1011 29.85 840 24.81 4.7 40.4 81 1.8 35.2
14:00 1011 29.85 840 24.81 4.7 40.5 81 1.8 35.2
14:05 1011 29.85 841 24.83 4.7 40.4 82 1.9 35.3
14:10 1011 29.85 841 24.83 4.7 40.5 83 2 35.6
14:15 1012 29.88 841 24.83 4.6 40.3 84 2.1 35.7
14:20 1012 29.88 841 24.83 4.5 40.1 84 2 35.7
14:25 1012 29.88 841 24.83 4.8 40.6 82 2 35.7
14:30 1012 29.88 841 24.83 4.7 40.5 83 2 35.6
14:35 1012 29.88 841 24.83 4.6 40.3 83 2 35.6
14:40 1012 29.88 841 24.83 4.5 40.1 82 1.7 35.1
14:45 1012 29.88 841 24.83 4.5 40.1 80 1.3 34.3
14:50 1012 29.88 841 24.83 4.6 40.4 81 1.6 34.9
14:55 1012 29.88 841 24.83 4.7 40.5 81 1.7 35.1
15:00 1012 29.88 841 24.83 4.7 40.5 81 1.7 35
15:05 1012 29.88 841 24.83 4.6 40.3 83 2 35.5
15:10 1012 29.88 841 24.83 4.7 40.4 83 2.1 35.7
15:15 1012 29.88 841 24.83 4.7 40.4 82 2 35.5
15:20 1012 29.88 842 24.86 4.7 40.5 83 2.1 35.7
15:25 1012 29.88 841 24.83 4.9 40.9 81 1.9 35.4
15:30 1012 29.88 841 24.83 4.8 40.7 79 1.4 34.6
15:35 1012 29.88 841 24.83 4.8 40.6 80 1.7 35
15:40 1012 29.88 842 24.86 4.9 40.9 82 2 35.7
15:45 1012 29.88 842 24.86 4.9 40.9 82 2.1 35.7
15:50 1012 29.88 842 24.86 5.1 41.1 81 2.1 35.8
15:55 1013 29.91 842 24.86 5 41 82 2.1 35.8
16:00 1013 29.91 842 24.86 4.8 40.6 80 1.6 34.9
16:05 1013 29.91 842 24.86 4.7 40.5 81 1.8 35.3
16:10 1013 29.91 842 24.86 4.8 40.6 81 1.8 35.2
16:15 1013 29.91 842 24.86 4.7 40.4 82 1.8 35.2
16:20 1013 29.91 842 24.86 4.4 39.9 84 1.8 35.3
16:25 1013 29.91 842 24.86 4.3 39.7 83 1.6 34.8
16:30 1013 29.91 842 24.86 4.1 39.4 83 1.4 34.6
16:35 1013 29.91 842 24.86 4 39.2 84 1.6 34.8
16:40 1013 29.91 842 24.86 3.9 39 83 1.4 34.4
16:45 1013 29.91 842 24.86 3.8 38.8 85 1.5 34.7
16:50 1013 29.91 842 24.86 3.9 39 84 1.4 34.6
16:55 1013 29.91 843 24.89 3.8 38.8 86 1.7 35.1
17:00 1014 29.94 843 24.89 3.7 38.6 85 1.4 34.4
17:05 1014 29.94 843 24.89 3.3 38 85 1 33.9
17:10 1014 29.94 843 24.89 3 37.3 86 0.9 33.7
17:15 1014 29.94 843 24.89 2.7 36.8 88 0.9 33.7
17:20 1014 29.94 843 24.89 2.4 36.3 88 0.6 33.1
17:25 1014 29.94 843 24.89 2 35.6 89 0.4 32.8
17:30 1014 29.94 843 24.89 1.8 35.2 90 0.3 32.5
17:35 1014 29.94 844 24.92 1.6 34.9 90 0.1 32.2
17:40 1015 29.97 844 24.92 1.4 34.5 90 -0.1 31.9
17:45 1015 29.97 844 24.92 1.1 34 91 -0.3 31.5
17:50 1015 29.97 844 24.92 1 33.8 91 -0.3 31.5
17:55 1015 29.97 844 24.92 1 33.7 91 -0.3 31.5
18:00 1015 29.97 844 24.92 1 33.8 91 -0.3 31.5
18:05 1015 29.97 844 24.92 0.9 33.7 92 -0.3 31.5
18:10 1015 29.97 844 24.92 1 33.7 92 -0.3 31.5
18:15 1015 29.97 844 24.92 0.9 33.7 92 -0.3 31.5
18:20 1015 29.97 844 24.92 0.9 33.6 92 -0.3 31.5
18:25 1015 29.97 844 24.92 0.8 33.5 92 -0.4 31.3
18:30 1015 29.97 844 24.92 0.8 33.4 92 -0.4 31.3
18:35 1015 29.97 844 24.92 0.7 33.3 92 -0.4 31.2
18:40 1015 29.97 844 24.92 0.7 33.3 92 -0.4 31.3
18:45 1015 29.97 844 24.92 0.8 33.4 92 -0.4 31.4
18:50 1015 29.97 844 24.92 0.8 33.5 92 -0.3 31.4
18:55 1015 29.97 844 24.92 1 33.8 92 -0.2 31.6
19:00 1015 29.97 844 24.92 1 33.8 92 -0.2 31.6
19:05 1015 29.97 844 24.92 0.9 33.7 91 -0.3 31.4
19:10 1015 29.97 844 24.92 0.7 33.2 92 -0.5 31
19:15 1015 29.97 844 24.92 0.6 33.1 92 -0.5 31
19:20 1015 29.97 845 24.95 0.8 33.4 92 -0.4 31.3
19:25 1016 30 845 24.95 1 33.8 92 -0.2 31.7
19:30 1015 29.97 845 24.95 1.1 34 91 -0.1 31.7
19:35 1015 29.97 845 24.95 1.1 34 90 -0.3 31.5
19:40 1015 29.97 845 24.95 1.2 34.1 91 -0.2 31.6
19:45 1015 29.97 845 24.95 1.1 34.1 90 -0.3 31.4
19:50 1015 29.97 845 24.95 1.1 33.9 90 -0.3 31.4
19:55 1015 29.97 844 24.92 1.1 34 91 -0.3 31.5
20:00 1015 29.97 844 24.92 1.1 34 91 -0.2 31.6
20:05 1015 29.97 844 24.92 1 33.8 91 -0.3 31.4
20:10 1015 29.97 844 24.92 1 33.7 91 -0.3 31.5
20:15 1015 29.97 844 24.92 1 33.8 92 -0.2 31.6
20:20 1015 29.97 844 24.92 1 33.8 92 -0.1 31.8
20:25 1015 29.97 844 24.92 1.1 33.9 92 -0.1 31.8
20:30 1015 29.97 844 24.92 1.1 34 92 -0.1 31.9
20:35 1015 29.97 844 24.92 1.1 34 92 -0 32
20:40 1015 29.97 844 24.92 1.2 34.1 92 -0 31.9
20:45 1015 29.97 844 24.92 1.1 34 92 -0.1 31.8
20:50 1015 29.97 844 24.92 1.2 34.2 92 0 32.1
20:55 1015 29.97 844 24.92 1.2 34.2 92 0 32
21:00 1015 29.97 844 24.92 1.3 34.3 91 0 32
21:05 1015 29.97 844 24.92 1.2 34.2 91 -0 32
21:10 1015 29.97 844 24.92 1.2 34.2 91 -0.1 31.9
21:15 1015 29.97 844 24.92 1 33.8 92 -0.2 31.6
21:20 1015 29.97 844 24.92 0.8 33.4 92 -0.4 31.3
21:25 1015 29.97 844 24.92 0.7 33.3 91 -0.5 31.1
21:30 1015 29.97 844 24.92 0.6 33.1 92 -0.5 31
21:35 1015 29.97 844 24.92 0.5 33 92 -0.6 30.9
21:40 1015 29.97 844 24.92 0.4 32.8 92 -0.7 30.7
21:45 1015 29.97 844 24.92 0.4 32.7 92 -0.7 30.7
21:50 1015 29.97 844 24.92 0.4 32.7 92 -0.7 30.7
21:55 1015 29.97 844 24.92 0.5 32.9 92 -0.6 30.9
22:00 1015 29.97 844 24.92 0.6 33 92 -0.6 30.9
22:05 1015 29.97 844 24.92 0.6 33.1 92 -0.6 30.9
22:10 1015 29.97 844 24.92 0.7 33.3 91 -0.6 31
22:15 1015 29.97 844 24.92 0.9 33.5 90 -0.7 30.8
22:20 1015 29.97 844 24.92 0.9 33.7 89 -0.7 30.8
22:25 1015 29.97 844 24.92 0.9 33.6 89 -0.7 30.8
22:30 1015 29.97 844 24.92 0.9 33.6 90 -0.6 30.8
22:35 1015 29.97 845 24.95 0.9 33.6 90 -0.6 30.9
22:40 1015 29.97 844 24.92 0.9 33.7 89 -0.6 30.9
22:45 1015 29.97 845 24.95 0.9 33.7 89 -0.7 30.8
22:50 1015 29.97 845 24.95 1.1 33.9 88 -0.6 30.8
22:55 1015 29.97 845 24.95 1.1 34 88 -0.6 30.9
23:00 1015 29.97 845 24.95 1.1 33.9 88 -0.6 30.8
23:05 1016 30 845 24.95 1.1 34 89 -0.6 31
23:10 1015 29.97 845 24.95 1.1 34 89 -0.5 31.1
23:15 1015 29.97 845 24.95 1.3 34.3 89 -0.3 31.4
23:20 1016 30 845 24.95 1.5 34.7 89 -0.2 31.7
23:25 1015 29.97 845 24.95 1.6 34.8 88 -0.2 31.7
23:30 1015 29.97 845 24.95 1.5 34.7 89 -0.1 31.7
23:35 1015 29.97 845 24.95 1.4 34.5 89 -0.2 31.6
23:40 1015 29.97 845 24.95 1.2 34.2 90 -0.3 31.5
23:45 1016 30 845 24.95 1 33.7 90 -0.4 31.2
23:50 1016 30 845 24.95 0.8 33.5 91 -0.5 31.1
23:55 1016 30 845 24.95 0.8 33.4 90 -0.6 30.9
24:00 1016 30 845 24.95 0.7 33.3 90 -0.8 30.6